createdAt,value
2023-03-04T00:00:34.626Z,73.20
2023-03-04T00:01:37.161Z,76.43
2023-03-04T00:02:42.203Z,69.13
2023-03-04T00:03:54.055Z,67.60
2023-03-04T00:04:57.122Z,81.32
2023-03-04T00:06:00.665Z,65.78
2023-03-04T00:07:02.940Z,70.53
2023-03-04T00:08:05.264Z,63.67
2023-03-04T00:09:15.238Z,63.65
2023-03-04T00:10:18.633Z,77.05
2023-03-04T00:11:20.423Z,74.63
2023-03-04T00:12:24.923Z,80.22
2023-03-04T00:13:30.399Z,83.53
2023-03-04T00:14:33.830Z,79.20
2023-03-04T00:15:41.923Z,91.90
2023-03-04T00:16:48.966Z,73.93
2023-03-04T00:18:22.810Z,86.05
2023-03-04T00:19:27.210Z,91.32
2023-03-04T00:20:42.963Z,86.68
2023-03-04T00:21:47.343Z,81.93
2023-03-04T00:22:49.168Z,89.50
2023-03-04T00:23:52.831Z,81.72
2023-03-04T00:24:54.696Z,80.22
2023-03-04T00:25:56.508Z,87.53
2023-03-04T00:27:01.792Z,94.10
2023-03-04T00:28:06.830Z,79.00
2023-03-04T00:29:08.856Z,82.53
2023-03-04T00:30:12.738Z,85.03
2023-03-04T00:31:15.891Z,82.32
2023-03-04T00:32:19.384Z,79.57
2023-03-04T00:33:21.576Z,79.50
2023-03-04T00:34:24.395Z,85.93
2023-03-04T00:35:29.020Z,79.57
2023-03-04T00:36:31.112Z,94.57
2023-03-04T00:37:33.769Z,100.57
2023-03-04T00:38:35.490Z,95.68
2023-03-04T00:39:42.330Z,91.95
2023-03-04T00:40:44.692Z,86.88
2023-03-04T00:41:46.506Z,90.10
2023-03-04T00:42:48.888Z,86.20
2023-03-04T00:43:51.452Z,95.00
2023-03-04T00:44:55.945Z,90.65
2023-03-04T00:45:59.075Z,81.97
2023-03-04T00:47:01.466Z,87.57
2023-03-04T00:48:03.890Z,88.30
2023-03-04T00:49:05.892Z,95.60
2023-03-04T00:50:08.326Z,85.15
2023-03-04T00:51:15.606Z,88.95
2023-03-04T00:52:18.243Z,93.05
2023-03-04T00:53:21.347Z,93.20
2023-03-04T00:54:23.700Z,105.68
2023-03-04T00:55:28.987Z,94.28
2023-03-04T00:56:31.142Z,96.70
2023-03-04T00:57:32.754Z,95.68
2023-03-04T00:58:36.503Z,111.15
2023-03-04T00:59:41.176Z,99.63
2023-03-04T01:00:43.344Z,95.03
2023-03-04T01:01:45.211Z,92.38
2023-03-04T01:02:49.301Z,97.68
2023-03-04T01:03:51.948Z,87.57
2023-03-04T01:04:54.129Z,81.70
2023-03-04T01:05:58.593Z,74.10
2023-03-04T01:07:00.585Z,81.85
2023-03-04T01:08:03.284Z,81.15
2023-03-04T01:09:07.048Z,86.63
2023-03-04T01:10:11.905Z,78.30
2023-03-04T01:11:13.550Z,78.85
2023-03-04T01:12:15.695Z,82.65
2023-03-04T01:13:20.336Z,76.80
2023-03-04T01:14:23.148Z,67.90
2023-03-04T01:15:26.670Z,74.50
2023-03-04T01:16:32.150Z,80.35
2023-03-04T01:17:34.671Z,79.70
2023-03-04T01:18:37.122Z,91.10
2023-03-04T01:19:39.180Z,76.88
2023-03-04T01:20:45.231Z,79.53
2023-03-04T01:21:47.392Z,78.20
2023-03-04T01:22:49.093Z,85.05
2023-03-04T01:23:51.845Z,82.43
2023-03-04T01:24:53.734Z,84.45
2023-03-04T01:25:57.074Z,85.43
2023-03-04T01:27:00.404Z,87.53
2023-03-04T01:28:03.195Z,85.18
2023-03-04T01:29:06.916Z,91.55
2023-03-04T01:30:11.433Z,90.45
2023-03-04T01:31:13.719Z,94.70
2023-03-04T01:32:15.507Z,88.57
2023-03-04T01:33:17.807Z,99.55
2023-03-04T01:34:20.294Z,96.40
2023-03-04T01:35:22.075Z,99.88
2023-03-04T01:36:26.446Z,100.53
2023-03-04T01:37:28.691Z,121.88
2023-03-04T01:38:30.567Z,108.20
2023-03-04T01:39:32.649Z,93.07
2023-03-04T01:40:36.025Z,98.88
2023-03-04T01:41:37.904Z,83.57
2023-03-04T01:42:40.095Z,99.50
2023-03-04T01:43:42.141Z,93.60
2023-03-04T01:44:45.441Z,90.28
2023-03-04T01:45:54.278Z,87.85
2023-03-04T01:46:58.146Z,83.10
2023-03-04T01:48:00.213Z,80.22
2023-03-04T01:49:01.978Z,82.70
2023-03-04T01:50:12.047Z,82.18
2023-03-04T01:51:18.439Z,83.75
2023-03-04T01:52:21.797Z,85.28
2023-03-04T01:53:27.082Z,94.38
2023-03-04T01:54:29.724Z,95.43
2023-03-04T01:55:33.147Z,97.97
2023-03-04T01:56:37.998Z,94.53
2023-03-04T01:57:40.573Z,96.93
2023-03-04T01:58:43.782Z,98.15
2023-03-04T01:59:47.635Z,88.75
2023-03-04T02:00:52.358Z,91.70
2023-03-04T02:01:57.557Z,94.05
2023-03-04T02:03:12.656Z,102.60
2023-03-04T02:04:17.048Z,90.53
2023-03-04T02:05:22.909Z,98.68
2023-03-04T02:06:25.105Z,91.32
2023-03-04T02:07:27.924Z,100.05
2023-03-04T02:08:32.015Z,87.50
2023-03-04T02:09:35.147Z,88.00
2023-03-04T02:10:39.216Z,97.55
2023-03-04T02:11:43.557Z,90.18
2023-03-04T02:12:46.380Z,88.70
2023-03-04T02:13:48.027Z,95.85
2023-03-04T02:14:50.163Z,94.72
2023-03-04T02:15:52.608Z,102.53
2023-03-04T02:16:56.697Z,96.72
2023-03-04T02:18:05.087Z,89.90
2023-03-04T02:19:31.892Z,98.97
2023-03-04T02:21:01.436Z,87.28
2023-03-04T02:22:04.414Z,101.28
2023-03-04T02:23:21.567Z,99.88
2023-03-04T02:24:29.543Z,92.03
2023-03-04T02:25:39.883Z,86.60
2023-03-04T02:26:44.786Z,92.18
2023-03-04T02:27:47.917Z,102.30
2023-03-04T02:28:55.186Z,93.50
2023-03-04T02:29:56.881Z,96.72
2023-03-04T02:30:58.742Z,101.82
2023-03-04T02:32:00.849Z,104.75
2023-03-04T02:33:02.772Z,104.30
2023-03-04T02:34:13.894Z,104.20
2023-03-04T02:35:19.584Z,99.43
2023-03-04T02:36:22.390Z,94.55
2023-03-04T02:37:24.253Z,91.00
2023-03-04T02:38:26.994Z,90.03
2023-03-04T02:39:35.281Z,97.93
2023-03-04T02:40:40.527Z,89.60
2023-03-04T02:41:44.426Z,83.45
2023-03-04T02:42:49.173Z,88.65
2023-03-04T02:43:55.848Z,93.00
2023-03-04T02:45:01.269Z,106.43
2023-03-04T02:46:07.233Z,96.78
2023-03-04T02:47:11.067Z,90.45
2023-03-04T02:48:17.742Z,96.45
2023-03-04T02:49:21.178Z,101.25
2023-03-04T02:50:24.130Z,94.15
2023-03-04T02:51:25.945Z,99.43
2023-03-04T02:52:29.903Z,90.15
2023-03-04T02:53:31.945Z,92.88
2023-03-04T02:54:35.616Z,98.53
2023-03-04T02:55:37.473Z,87.72
2023-03-04T02:56:39.182Z,91.45
2023-03-04T02:57:42.155Z,94.80
2023-03-04T02:58:44.875Z,93.50
2023-03-04T02:59:47.004Z,121.05
2023-03-04T03:00:50.528Z,99.22
2023-03-04T03:01:53.394Z,108.05
2023-03-04T03:02:57.207Z,98.95
2023-03-04T03:04:01.127Z,92.88
2023-03-04T03:05:06.622Z,90.00
2023-03-04T03:06:11.125Z,100.85
2023-03-04T03:07:13.599Z,88.72
2023-03-04T03:08:15.982Z,101.32
2023-03-04T03:09:18.789Z,93.40
2023-03-04T03:10:21.496Z,99.47
2023-03-04T03:11:26.544Z,89.57
2023-03-04T03:12:29.952Z,92.93
2023-03-04T03:13:33.529Z,81.45
2023-03-04T03:14:35.468Z,99.72
2023-03-04T03:15:42.736Z,102.00
2023-03-04T03:16:44.607Z,98.28
2023-03-04T03:17:47.487Z,104.55
2023-03-04T03:18:49.516Z,105.68
2023-03-04T03:19:52.468Z,98.55
2023-03-04T03:20:54.362Z,89.47
2023-03-04T03:21:56.877Z,109.57
2023-03-04T03:22:58.572Z,102.22
2023-03-04T03:24:00.440Z,109.00
2023-03-04T03:25:03.581Z,97.43
2023-03-04T03:26:06.120Z,90.93
2023-03-04T03:27:07.844Z,91.78
2023-03-04T03:28:10.781Z,91.75
2023-03-04T03:29:12.979Z,87.38
2023-03-04T03:30:16.912Z,96.00
2023-03-04T03:31:20.611Z,94.15
2023-03-04T03:32:22.764Z,90.18
2023-03-04T03:33:25.204Z,88.90
2023-03-04T03:34:29.827Z,89.30
2023-03-04T03:35:33.501Z,100.68
2023-03-04T03:36:35.963Z,88.93
2023-03-04T03:37:37.640Z,97.60
2023-03-04T03:38:39.703Z,94.00
2023-03-04T03:39:41.912Z,86.63
2023-03-04T03:40:47.930Z,88.00
2023-03-04T03:41:50.191Z,88.88
2023-03-04T03:42:53.011Z,80.68
2023-03-04T03:43:55.579Z,94.03
2023-03-04T03:44:57.303Z,98.22
2023-03-04T03:45:59.639Z,87.63
2023-03-04T03:47:01.666Z,97.00
2023-03-04T03:48:04.659Z,92.70
2023-03-04T03:49:09.514Z,78.88
2023-03-04T03:50:12.128Z,76.65
2023-03-04T03:51:15.701Z,80.18
2023-03-04T03:52:17.706Z,88.60
2023-03-04T03:53:19.497Z,80.05
2023-03-04T03:54:21.417Z,81.45
2023-03-04T03:55:23.449Z,78.47
2023-03-04T03:56:26.596Z,79.93
2023-03-04T03:57:30.713Z,89.15
2023-03-04T03:58:32.454Z,98.72
2023-03-04T03:59:34.150Z,82.78
2023-03-04T04:00:36.977Z,79.65
2023-03-04T04:01:40.567Z,79.75
2023-03-04T04:02:43.087Z,77.20
2023-03-04T04:03:45.510Z,90.00
2023-03-04T04:04:47.128Z,80.50
2023-03-04T04:05:51.225Z,83.00
2023-03-04T04:06:53.834Z,84.40
2023-03-04T04:07:55.601Z,84.50
2023-03-04T04:08:57.908Z,91.88
2023-03-04T04:10:00.729Z,90.18
2023-03-04T04:11:02.863Z,90.78
2023-03-04T04:12:07.539Z,104.93
2023-03-04T04:13:09.785Z,91.45
2023-03-04T04:14:14.044Z,93.60
2023-03-04T04:15:16.664Z,102.53
2023-03-04T04:16:18.984Z,91.80
2023-03-04T04:17:21.060Z,97.43
2023-03-04T04:18:24.308Z,97.93
2023-03-04T04:19:26.973Z,101.97
2023-03-04T04:20:31.857Z,90.47
2023-03-04T04:21:34.359Z,96.55
2023-03-04T04:22:38.576Z,112.85
2023-03-04T04:23:41.455Z,99.75
2023-03-04T04:24:46.572Z,109.82
2023-03-04T04:25:50.241Z,93.28
2023-03-04T04:26:53.340Z,89.63
2023-03-04T04:27:56.278Z,85.90
2023-03-04T04:28:59.763Z,79.22
2023-03-04T04:30:02.803Z,83.10
2023-03-04T04:31:08.947Z,75.15
2023-03-04T04:32:15.133Z,85.55
2023-03-04T04:33:17.139Z,79.32
2023-03-04T04:34:20.474Z,83.78
2023-03-04T04:35:22.489Z,83.25
2023-03-04T04:36:26.763Z,87.55
2023-03-04T04:37:30.975Z,90.72
2023-03-04T04:38:34.409Z,93.32
2023-03-04T04:39:36.661Z,89.32
2023-03-04T04:40:40.013Z,93.07
2023-03-04T04:41:44.605Z,94.13
2023-03-04T04:42:49.260Z,86.97
2023-03-04T04:43:53.213Z,85.90
2023-03-04T04:44:57.657Z,82.35
2023-03-04T04:46:02.069Z,89.38
2023-03-04T04:47:06.850Z,80.03
2023-03-04T04:48:09.267Z,87.25
2023-03-04T04:49:11.596Z,94.90
2023-03-04T04:50:13.477Z,80.55
2023-03-04T04:51:17.375Z,88.75
2023-03-04T04:52:19.621Z,100.05
2023-03-04T04:53:22.472Z,100.85
2023-03-04T04:54:27.579Z,131.35
2023-03-04T04:55:30.504Z,107.30
2023-03-04T04:56:33.371Z,125.68
2023-03-04T04:57:37.010Z,190.98
2023-03-04T04:58:39.430Z,173.25
2023-03-04T04:59:41.410Z,146.73
2023-03-04T05:00:45.245Z,138.75
2023-03-04T05:01:50.416Z,140.32
2023-03-04T05:02:53.530Z,136.20
2023-03-04T05:03:57.080Z,136.68
2023-03-04T05:04:58.829Z,116.43
2023-03-04T05:06:01.439Z,117.15
2023-03-04T05:07:04.635Z,110.53
2023-03-04T05:08:07.671Z,110.10
2023-03-04T05:09:10.478Z,97.85
2023-03-04T05:10:13.713Z,98.95
2023-03-04T05:11:17.200Z,97.65
2023-03-04T05:12:19.215Z,112.80
2023-03-04T05:13:21.272Z,100.03
2023-03-04T05:14:23.163Z,114.53
2023-03-04T05:15:25.675Z,110.03
2023-03-04T05:16:28.279Z,108.68
2023-03-04T05:17:30.558Z,111.53
2023-03-04T05:18:33.883Z,117.20
2023-03-04T05:19:35.591Z,106.10
2023-03-04T05:20:37.955Z,119.35
2023-03-04T05:21:42.407Z,109.15
2023-03-04T05:22:44.227Z,105.68
2023-03-04T05:23:47.534Z,120.95
2023-03-04T05:24:49.654Z,123.38
2023-03-04T05:25:52.717Z,109.45
2023-03-04T05:26:55.048Z,115.88
2023-03-04T05:28:02.449Z,130.02
2023-03-04T05:29:05.314Z,116.03
2023-03-04T05:30:12.797Z,171.90
2023-03-04T05:31:15.058Z,117.57
2023-03-04T05:32:17.272Z,141.73
2023-03-04T05:33:19.301Z,113.70
2023-03-04T05:34:22.997Z,124.78
2023-03-04T05:35:29.141Z,122.80
2023-03-04T05:36:32.611Z,119.35
2023-03-04T05:37:35.092Z,119.85
2023-03-04T05:38:39.848Z,103.53
2023-03-04T05:39:41.667Z,106.78
2023-03-04T05:40:44.238Z,96.68
2023-03-04T05:41:46.384Z,104.65
2023-03-04T05:42:51.304Z,109.53
2023-03-04T05:43:53.752Z,105.60
2023-03-04T05:44:57.533Z,120.65
2023-03-04T05:46:00.814Z,111.05
2023-03-04T05:47:02.900Z,119.25
2023-03-04T05:48:06.290Z,116.95
2023-03-04T05:49:11.112Z,120.07
2023-03-04T05:50:13.429Z,113.00
2023-03-04T05:51:16.632Z,124.80
2023-03-04T05:52:19.220Z,115.50
2023-03-04T05:53:22.677Z,102.40
2023-03-04T05:54:25.455Z,113.57
2023-03-04T05:55:30.294Z,112.15
2023-03-04T05:56:34.094Z,108.78
2023-03-04T05:57:37.014Z,102.35
2023-03-04T05:58:38.831Z,118.80
2023-03-04T05:59:42.416Z,111.95
2023-03-04T06:00:47.297Z,114.32
2023-03-04T06:01:50.849Z,114.90
2023-03-04T06:02:53.940Z,129.05
2023-03-04T06:04:00.725Z,121.07
2023-03-04T06:05:05.674Z,116.20
2023-03-04T06:06:09.536Z,106.75
2023-03-04T06:07:16.343Z,104.47
2023-03-04T06:08:21.731Z,108.00
2023-03-04T06:09:23.656Z,109.55
2023-03-04T06:10:25.754Z,111.15
2023-03-04T06:11:27.586Z,114.78
2023-03-04T06:12:30.920Z,116.55
2023-03-04T06:13:32.807Z,110.82
2023-03-04T06:14:35.505Z,107.28
2023-03-04T06:15:40.956Z,101.78
2023-03-04T06:16:42.927Z,105.45
2023-03-04T06:17:47.427Z,109.07
2023-03-04T06:18:50.874Z,106.85
2023-03-04T06:19:54.449Z,102.43
2023-03-04T06:20:58.959Z,110.75
2023-03-04T06:22:01.357Z,100.35
2023-03-04T06:23:05.419Z,117.68
2023-03-04T06:24:07.380Z,117.40
2023-03-04T06:25:11.211Z,116.60
2023-03-04T06:26:15.967Z,121.82
2023-03-04T06:27:19.861Z,109.65
2023-03-04T06:28:22.439Z,120.88
2023-03-04T06:29:24.573Z,119.32
2023-03-04T06:30:26.752Z,122.03
2023-03-04T06:31:29.941Z,120.43
2023-03-04T06:32:32.412Z,123.35
2023-03-04T06:33:35.026Z,116.32
2023-03-04T06:34:42.242Z,121.65
2023-03-04T06:35:44.764Z,110.35
2023-03-04T06:36:46.648Z,109.47
2023-03-04T06:37:49.702Z,105.78
2023-03-04T06:38:53.282Z,109.95
2023-03-04T06:39:56.244Z,118.55
2023-03-04T06:41:07.017Z,118.68
2023-03-04T06:42:09.620Z,117.68
2023-03-04T06:43:11.532Z,112.28
2023-03-04T06:44:13.578Z,120.82
2023-03-04T06:45:15.648Z,120.70
2023-03-04T06:46:18.004Z,126.55
2023-03-04T06:47:21.214Z,107.20
2023-03-04T06:48:23.603Z,121.60
2023-03-04T06:49:27.364Z,116.72
2023-03-04T06:50:29.399Z,110.18
2023-03-04T06:51:33.429Z,117.55
2023-03-04T06:52:36.741Z,120.90
2023-03-04T06:53:40.649Z,106.90
2023-03-04T06:54:42.674Z,104.80
2023-03-04T06:55:47.658Z,110.80
2023-03-04T06:56:51.002Z,108.72
2023-03-04T06:57:53.112Z,101.72
2023-03-04T06:58:55.045Z,101.88
2023-03-04T06:59:57.231Z,108.25
2023-03-04T07:01:20.121Z,99.47
2023-03-04T07:02:24.276Z,95.90
2023-03-04T07:03:28.306Z,91.07
2023-03-04T07:04:31.462Z,97.57
2023-03-04T07:05:33.708Z,94.93
2023-03-04T07:06:35.646Z,94.90
2023-03-04T07:07:38.014Z,101.25
2023-03-04T07:08:41.218Z,96.53
2023-03-04T07:09:45.008Z,107.57
2023-03-04T07:10:46.941Z,98.95
2023-03-04T07:11:52.693Z,96.65
2023-03-04T07:12:55.433Z,93.13
2023-03-04T07:13:58.033Z,101.35
2023-03-04T07:14:59.967Z,96.95
2023-03-04T07:16:04.342Z,93.22
2023-03-04T07:17:08.154Z,102.13
2023-03-04T07:18:10.884Z,91.55
2023-03-04T07:19:12.674Z,90.38
2023-03-04T07:20:14.753Z,87.78
2023-03-04T07:21:18.642Z,74.35
2023-03-04T07:22:20.242Z,71.20
2023-03-04T07:23:23.022Z,75.35
2023-03-04T07:24:25.350Z,66.72
2023-03-04T07:25:29.844Z,73.38
2023-03-04T07:26:32.251Z,63.97
2023-03-04T07:27:34.781Z,62.42
2023-03-04T07:28:37.860Z,68.68
2023-03-04T07:29:41.029Z,71.28
2023-03-04T07:30:43.100Z,68.72
2023-03-04T07:31:46.667Z,76.70
2023-03-04T07:32:49.933Z,66.90
2023-03-04T07:33:52.978Z,59.45
2023-03-04T07:34:55.217Z,68.18
2023-03-04T07:36:01.250Z,70.35
2023-03-04T07:37:03.603Z,69.57
2023-03-04T07:38:07.653Z,65.15
2023-03-04T07:39:13.379Z,55.65
2023-03-04T07:40:18.342Z,59.50
2023-03-04T07:41:21.032Z,62.40
2023-03-04T07:42:23.150Z,55.45
2023-03-04T07:43:27.098Z,54.40
2023-03-04T07:44:30.401Z,52.63
2023-03-04T07:45:32.793Z,54.25
2023-03-04T07:46:38.355Z,59.47
2023-03-04T07:47:41.474Z,55.08
2023-03-04T07:48:47.337Z,69.10
2023-03-04T07:49:50.171Z,63.80
2023-03-04T07:51:12.313Z,58.17
2023-03-04T07:52:18.265Z,55.65
2023-03-04T07:53:24.309Z,56.58
2023-03-04T07:54:29.327Z,48.97
2023-03-04T07:55:32.017Z,53.75
2023-03-04T07:56:36.307Z,53.25
2023-03-04T07:58:07.260Z,49.35
2023-03-04T07:59:09.705Z,54.47
2023-03-04T08:00:16.199Z,47.72
2023-03-04T08:01:22.861Z,53.17
2023-03-04T08:02:25.187Z,49.03
2023-03-04T08:03:29.638Z,51.05
2023-03-04T08:04:32.055Z,50.80
2023-03-04T08:05:34.230Z,47.95
2023-03-04T08:06:36.566Z,50.30
2023-03-04T08:07:38.712Z,53.45
2023-03-04T08:08:40.980Z,51.72
2023-03-04T08:09:45.988Z,53.78
2023-03-04T08:10:48.978Z,59.78
2023-03-04T08:11:51.773Z,58.92
2023-03-04T08:12:53.850Z,61.70
2023-03-04T08:13:57.902Z,57.75
2023-03-04T08:15:00.032Z,57.22
2023-03-04T08:16:02.714Z,71.03
2023-03-04T08:17:05.617Z,65.85
2023-03-04T08:18:07.682Z,63.65
2023-03-04T08:19:12.422Z,58.80
2023-03-04T08:20:14.314Z,65.95
2023-03-04T08:21:22.848Z,60.17
2023-03-04T08:22:24.895Z,70.53
2023-03-04T08:23:26.873Z,58.42
2023-03-04T08:24:30.487Z,60.47
2023-03-04T08:25:33.366Z,67.00
2023-03-04T08:26:43.571Z,56.10
2023-03-04T08:27:45.685Z,55.83
2023-03-04T08:28:50.181Z,51.30
2023-03-04T08:29:55.059Z,54.70
2023-03-04T08:30:58.631Z,54.42
2023-03-04T08:32:00.733Z,53.80
2023-03-04T08:33:07.183Z,52.35
2023-03-04T08:34:10.905Z,65.32
2023-03-04T08:35:13.717Z,52.97
2023-03-04T08:36:16.473Z,62.03
2023-03-04T08:37:19.530Z,57.90
2023-03-04T08:38:21.850Z,56.17
2023-03-04T08:39:23.434Z,55.67
2023-03-04T08:40:27.493Z,52.78
2023-03-04T08:41:29.847Z,57.65
2023-03-04T08:42:31.736Z,57.38
2023-03-04T08:43:36.459Z,54.53
2023-03-04T08:44:38.482Z,60.00
2023-03-04T08:45:43.576Z,54.95
2023-03-04T08:46:45.337Z,57.63
2023-03-04T08:47:47.503Z,52.65
2023-03-04T08:48:53.520Z,56.55
2023-03-04T08:49:58.737Z,53.33
2023-03-04T08:51:00.895Z,52.13
2023-03-04T08:52:05.761Z,48.83
2023-03-04T08:53:07.731Z,57.50
2023-03-04T08:54:09.674Z,54.80
2023-03-04T08:55:11.486Z,56.63
2023-03-04T08:56:14.438Z,56.28
2023-03-04T08:57:17.349Z,52.75
2023-03-04T08:58:20.899Z,64.45
2023-03-04T08:59:23.096Z,56.80
2023-03-04T09:00:25.166Z,60.75
2023-03-04T09:01:41.835Z,58.00
2023-03-04T09:02:43.570Z,55.22
2023-03-04T09:03:45.749Z,57.60
2023-03-04T09:04:47.762Z,59.65
2023-03-04T09:05:49.849Z,63.08
2023-03-04T09:06:53.893Z,58.47
2023-03-04T09:07:55.847Z,53.60
2023-03-04T09:08:57.685Z,91.63
2023-03-04T09:09:59.878Z,205.77
2023-03-04T09:11:02.174Z,71.15
2023-03-04T09:12:04.206Z,66.78
2023-03-04T09:13:06.474Z,56.00
2023-03-04T09:14:08.649Z,53.22
2023-03-04T09:15:12.100Z,50.90
2023-03-04T09:16:15.129Z,56.38
2023-03-04T09:17:18.556Z,58.58
2023-03-04T09:18:22.006Z,58.38
2023-03-04T09:19:24.303Z,66.00
2023-03-04T09:20:26.263Z,56.53
2023-03-04T09:21:28.156Z,69.57
2023-03-04T09:22:29.984Z,55.25
2023-03-04T09:23:31.990Z,57.25
2023-03-04T09:24:33.757Z,63.50
2023-03-04T09:25:37.047Z,61.33
2023-03-04T09:26:39.031Z,54.35
2023-03-04T09:27:41.379Z,59.00
2023-03-04T09:28:43.408Z,58.80
2023-03-04T09:29:45.781Z,54.00
2023-03-04T09:30:48.549Z,59.70
2023-03-04T09:31:50.485Z,50.10
2023-03-04T09:32:52.224Z,49.67
2023-03-04T09:33:56.496Z,63.90
2023-03-04T09:34:58.573Z,53.00
2023-03-04T09:36:00.537Z,56.42
2023-03-04T09:37:02.516Z,54.03
2023-03-04T09:38:04.244Z,50.53
2023-03-04T09:39:06.286Z,53.50
2023-03-04T09:40:09.959Z,56.03
2023-03-04T09:41:25.684Z,50.15
2023-03-04T09:42:34.509Z,53.88
2023-03-04T09:43:40.238Z,49.97
2023-03-04T09:44:45.968Z,56.60
2023-03-04T09:45:53.455Z,53.72
2023-03-04T09:46:59.312Z,54.75
2023-03-04T09:48:01.887Z,57.35
2023-03-04T09:49:07.127Z,58.80
2023-03-04T09:50:11.418Z,56.38
2023-03-04T09:51:34.885Z,56.45
2023-03-04T09:53:13.968Z,54.53
2023-03-04T09:54:36.847Z,57.63
2023-03-04T09:55:43.687Z,61.05
2023-03-04T09:56:45.475Z,83.05
2023-03-04T09:57:56.054Z,57.65
2023-03-04T09:59:25.600Z,58.65
2023-03-04T10:00:39.782Z,62.03
2023-03-04T10:01:56.539Z,61.33
2023-03-04T10:02:58.126Z,68.28
2023-03-04T10:04:18.825Z,59.10
2023-03-04T10:05:25.026Z,57.35
2023-03-04T10:06:28.823Z,61.58
2023-03-04T10:07:37.168Z,65.00
2023-03-04T10:09:11.994Z,60.67
2023-03-04T10:10:19.494Z,63.20
2023-03-04T10:11:31.776Z,64.97
2023-03-04T10:12:36.447Z,67.40
2023-03-04T10:13:44.983Z,64.20
2023-03-04T10:14:52.843Z,55.83
2023-03-04T10:15:55.723Z,66.10
2023-03-04T10:17:00.500Z,62.47
2023-03-04T10:18:42.376Z,66.38
2023-03-04T10:19:57.846Z,68.28
2023-03-04T10:21:12.683Z,59.17
2023-03-04T10:22:36.653Z,55.63
2023-03-04T10:23:38.697Z,56.55
2023-03-04T10:24:41.120Z,56.22
2023-03-04T10:25:47.027Z,54.80
2023-03-04T10:26:53.609Z,58.22
2023-03-04T10:28:09.576Z,80.97
2023-03-04T10:29:21.277Z,59.17
2023-03-04T10:30:53.504Z,52.70
2023-03-04T10:31:56.489Z,65.00
2023-03-04T10:32:58.705Z,60.45
2023-03-04T10:34:00.630Z,58.50
2023-03-04T10:35:02.528Z,62.67
2023-03-04T10:36:25.998Z,56.70
2023-03-04T10:37:45.697Z,59.40
2023-03-04T10:38:47.320Z,66.10
2023-03-04T10:39:50.619Z,65.30
2023-03-04T10:40:52.470Z,63.93
2023-03-04T10:42:06.252Z,66.40
2023-03-04T10:43:17.034Z,64.03
2023-03-04T10:44:19.136Z,64.60
2023-03-04T10:45:27.920Z,64.07
2023-03-04T10:46:31.376Z,69.47
2023-03-04T10:47:34.097Z,65.63
2023-03-04T10:48:35.823Z,69.78
2023-03-04T10:49:54.809Z,64.55
2023-03-04T10:51:30.311Z,76.28
2023-03-04T10:52:53.157Z,68.77
2023-03-04T10:54:06.427Z,68.43
2023-03-04T10:55:20.199Z,71.15
2023-03-04T10:56:45.847Z,75.55
2023-03-04T10:58:12.786Z,78.13
2023-03-04T10:59:50.447Z,67.53
2023-03-04T11:01:04.813Z,75.78
2023-03-04T11:02:17.581Z,76.57
2023-03-04T11:03:32.480Z,71.30
2023-03-04T11:04:34.677Z,63.63
2023-03-04T11:05:36.413Z,70.65
2023-03-04T11:06:41.735Z,72.43
2023-03-04T11:07:57.821Z,65.20
2023-03-04T11:09:00.296Z,66.20
2023-03-04T11:10:10.792Z,62.87
2023-03-04T11:11:31.306Z,70.43
2023-03-04T11:12:34.775Z,75.20
2023-03-04T11:13:36.857Z,62.50
2023-03-04T11:14:46.558Z,66.82
2023-03-04T11:16:05.990Z,73.13
2023-03-04T11:17:20.067Z,65.50
2023-03-04T11:18:30.665Z,69.10
2023-03-04T11:19:39.149Z,65.90
2023-03-04T11:20:43.617Z,65.07
2023-03-04T11:21:45.671Z,67.50
2023-03-04T11:22:47.385Z,66.43
2023-03-04T11:24:00.333Z,66.78
2023-03-04T11:25:24.005Z,60.67
2023-03-04T11:26:43.193Z,60.42
2023-03-04T11:27:48.748Z,62.55
2023-03-04T11:29:25.048Z,64.13
2023-03-04T11:30:36.589Z,64.03
2023-03-04T11:31:51.315Z,69.40
2023-03-04T11:32:57.364Z,63.45
2023-03-04T11:34:05.088Z,66.13
2023-03-04T11:35:58.476Z,67.60
2023-03-04T11:37:19.497Z,66.87
2023-03-04T11:38:32.092Z,67.70
2023-03-04T11:39:41.236Z,80.22
2023-03-04T11:40:55.226Z,65.17
2023-03-04T11:42:11.466Z,68.93
2023-03-04T11:43:19.486Z,63.80
2023-03-04T11:44:21.463Z,77.05
2023-03-04T11:45:54.695Z,71.57
2023-03-04T11:47:17.849Z,66.13
2023-03-04T11:48:42.317Z,74.30
2023-03-04T11:50:09.554Z,65.72
2023-03-04T11:51:32.440Z,57.42
2023-03-04T11:52:55.437Z,63.42
2023-03-04T11:54:15.788Z,66.18
2023-03-04T11:55:38.372Z,74.93
2023-03-04T11:56:45.779Z,65.43
2023-03-04T11:58:12.336Z,69.82
2023-03-04T11:59:38.157Z,68.07
2023-03-04T12:00:45.836Z,66.30
2023-03-04T12:01:50.585Z,65.88
2023-03-04T12:03:16.499Z,76.68
2023-03-04T12:04:37.288Z,81.55
2023-03-04T12:06:07.494Z,74.45
2023-03-04T12:07:21.497Z,70.47
2023-03-04T12:08:48.358Z,81.95
2023-03-04T12:09:56.140Z,76.93
2023-03-04T12:11:05.094Z,81.95
2023-03-04T12:12:44.374Z,74.00
2023-03-04T12:14:03.336Z,77.00
2023-03-04T12:15:24.844Z,84.50
2023-03-04T12:16:49.844Z,83.90
2023-03-04T12:17:54.449Z,87.85
2023-03-04T12:19:05.036Z,72.07
2023-03-04T12:20:17.038Z,76.45
2023-03-04T12:21:33.367Z,78.25
2023-03-04T12:22:37.751Z,82.50
2023-03-04T12:24:17.316Z,82.65
2023-03-04T12:25:25.520Z,80.72
2023-03-04T12:27:06.803Z,83.55
2023-03-04T12:28:34.482Z,73.13
2023-03-04T12:29:57.327Z,73.53
2023-03-04T12:31:08.087Z,85.13
2023-03-04T12:32:40.947Z,74.97
2023-03-04T12:34:08.894Z,73.15
2023-03-04T12:35:40.696Z,74.57
2023-03-04T12:37:21.702Z,81.40
2023-03-04T12:38:35.861Z,89.78
2023-03-04T12:39:48.989Z,76.65
2023-03-04T12:41:16.149Z,85.72
2023-03-04T12:42:42.035Z,83.90
2023-03-04T12:44:12.720Z,75.25
2023-03-04T12:45:20.685Z,78.50
2023-03-04T12:46:48.114Z,80.57
2023-03-04T12:48:07.159Z,84.93
2023-03-04T12:49:27.404Z,86.20
2023-03-04T12:50:50.848Z,86.65
2023-03-04T12:52:06.978Z,72.80
2023-03-04T12:53:34.968Z,79.03
2023-03-04T12:54:45.632Z,78.22
2023-03-04T12:55:49.756Z,78.85
2023-03-04T12:57:25.023Z,86.93
2023-03-04T12:58:30.177Z,76.72
2023-03-04T12:59:50.146Z,85.38
2023-03-04T13:01:15.983Z,78.97
2023-03-04T13:02:20.728Z,87.95
2023-03-04T13:03:28.356Z,86.63
2023-03-04T13:04:47.226Z,82.60
2023-03-04T13:05:52.498Z,95.90
2023-03-04T13:07:17.218Z,91.03
2023-03-04T13:08:47.046Z,85.10
2023-03-04T13:09:55.901Z,78.00
2023-03-04T13:11:02.949Z,82.05
2023-03-04T13:12:20.938Z,91.13
2023-03-04T13:14:03.467Z,88.10
2023-03-04T13:15:08.174Z,84.93
2023-03-04T13:16:19.067Z,87.97
2023-03-04T13:17:38.413Z,100.43
2023-03-04T13:18:40.636Z,82.50
2023-03-04T13:19:43.956Z,91.65
2023-03-04T13:20:45.941Z,88.45
2023-03-04T13:21:48.844Z,86.00
2023-03-04T13:23:09.004Z,95.90
2023-03-04T13:24:46.315Z,78.72
2023-03-04T13:25:57.150Z,84.65
2023-03-04T13:27:02.453Z,77.90
2023-03-04T13:28:16.082Z,79.53
2023-03-04T13:29:18.029Z,95.07
2023-03-04T13:30:31.918Z,76.90
2023-03-04T13:31:59.911Z,250.82
2023-03-04T13:33:10.803Z,145.27
2023-03-04T13:34:42.781Z,98.50
2023-03-04T13:35:50.394Z,77.03
2023-03-04T13:36:56.604Z,81.28
2023-03-04T13:38:00.233Z,70.65
2023-03-04T13:39:22.497Z,80.38
2023-03-04T13:40:33.859Z,78.40
2023-03-04T13:41:53.861Z,77.00
2023-03-04T13:42:55.692Z,79.32
2023-03-04T13:43:59.492Z,81.18
2023-03-04T13:45:01.765Z,80.38
2023-03-04T13:46:18.786Z,83.53
2023-03-04T13:47:27.584Z,83.28
2023-03-04T13:48:36.243Z,68.82
2023-03-04T13:49:38.594Z,76.63
2023-03-04T13:50:51.465Z,77.75
2023-03-04T13:51:53.782Z,74.50
2023-03-04T13:53:18.246Z,89.05
2023-03-04T13:54:20.056Z,83.10
2023-03-04T13:55:40.603Z,78.05
2023-03-04T13:56:46.478Z,79.30
2023-03-04T13:57:50.426Z,83.97
2023-03-04T13:59:04.128Z,91.30
2023-03-04T14:00:12.014Z,79.88
2023-03-04T14:01:32.147Z,72.82
2023-03-04T14:02:35.203Z,87.57
2023-03-04T14:03:37.015Z,71.20
2023-03-04T14:04:40.955Z,71.93
2023-03-04T14:05:42.885Z,74.22
2023-03-04T14:06:47.631Z,78.13
2023-03-04T14:07:49.523Z,85.03
2023-03-04T14:08:52.997Z,76.32
2023-03-04T14:10:08.880Z,85.25
2023-03-04T14:11:16.469Z,80.25
2023-03-04T14:12:18.463Z,75.28
2023-03-04T14:13:20.357Z,83.70